Record high temperature 100.4°F Record low temperature 10.6°F Record high gust 40 mph Record high average 22.8 mph Record daily rain 11.65 in. Record low windchill 2.7°F Record high barometer 30.773 in. Record low barometer 29.184 in.
Daily high pressure 30.263 in. Daily low pressure 30.146 in. Daily low windchill 56.6°F Daily high heat index 70.5°F Daily high gust speed 19.0 mph NE Daily high average speed 10.5 mph NNE
Forecast: increasing clouds with little temp. change. precipitation possible within 24 to 48 hrs.
On the Greenway Weather Data - Tigard OR
LAST READING AT TIME: 10:26 PM DATE: July 24 2014, time of next update: 10:27 pm
Current WeatherNight time/Dry/Overcast Current Temperature 62.1°F (16.7°C), Apparent temp 63.7°F
Maximum Temperature (since midnight)70.5°F at: 5:12 PM Minimum Temperature (since midnight)56.6°F at: 3:48 AM
Average windspeed (ten minute)0.4 mph Wind Direction (ten minute)SE (135°)
Windchill Temperature 62.1°F Maximum Gust (last hour) 2 mph at: 9:34 PM
Maximum Gust (since midnight)19 mph at: 5:55 AM Maximum 1 minute average (since midnight)10.5 mph at: 6:43 AM
Rainfall (last hour)0.00 in. (0.0 mm) Rainfall (since midnight)0.00 in. (0.0 mm) ---
Rainfall This month 0.74 in. (18.8 mm) Rainfall To date this year 30.70 in. (779.7 mm)
Maximum rain per minute (last hour)0.00 in/min Maximum rain per hour (last 6 hours)0.00 in/hour
Yesterdays rainfall 0.46 in DewPoint 54.8°F (Wet Bulb :58.0°F )
Humidity 77 %, Humidex 66.8°F Barometer corrected to msl30.200 in. (1022.7 hPa)
Pressure change +0.01 in. (last hour) Trend (last hour)STEADY
Pressure change (last 12 hours)-0.06 in Pressure change (last 6 hours)-0.03 in

This page is updated from recent data collected by a DAVIS VANTAGE PRO weather station Use the Reload or Refresh facility on your browser to retrieve the latest data.


Click here for the last 24 hour graph
Click here for the last 48 hour graph
Click here for the last 72 hour graph
Click here for the month to date graph


Weather report/Warning/Metars

PORTLAND-HILLSBORO AIRPORT, OR, United States (KHIO) 45-33N 122-57W 68M
Jul 25, 2014 - 12:53 AM EDT / 2014.07.25 0453 UTC
Wind: from the NNW (330 degrees) at 9 MPH (8 KT):0
Visibility: 10 mile(s):0
Sky conditions: overcast
Temperature: 62.1 F (16.7 C)
Dew Point: 51.1 F (10.6 C)
Relative Humidity: 67%
Pressure (altimeter): 30.2 in. Hg (1022 hPa)
ob: KHIO 250453Z 33008KT 10SM OVC041 17/11 A3020 RMK AO2 SLP226 T01670106
cycle: 5
PORTLAND INTERNATIONAL  AIRPORT, OR, United States (KPDX) 45-35N 122-36W 7M
Jul 24, 2014 - 11:53 PM EDT / 2014.07.25 0353 UTC
Wind: from the NNW (340 degrees) at 7 MPH (6 KT):0
Visibility: 10 mile(s):0
Sky conditions: partly cloudy
Temperature: 64.0 F (17.8 C)
Dew Point: 52.0 F (11.1 C)
Relative Humidity: 64%
Pressure (altimeter): 30.2 in. Hg (1022 hPa)
ob: KPDX 250353Z 34006KT 10SM SCT045 SCT060 18/11 A3020 RMK AO2 SLP226 T01780111
cycle: 4
PORTLAND-TROUTDALE AIRPORT, OR, United States (KTTD) 45-33N 122-25W 14M
Jul 25, 2014 - 12:53 AM EDT / 2014.07.25 0453 UTC
Wind: Calm:0
Visibility: 10 mile(s):0
Sky conditions: clear
Temperature: 63.0 F (17.2 C)
Dew Point: 53.1 F (11.7 C)
Relative Humidity: 70%
Pressure (altimeter): 30.19 in. Hg (1022 hPa)
ob: KTTD 250453Z AUTO 00000KT 10SM CLR 17/12 A3019 RMK AO2 SLP223 T01720117
cycle: 5
MCMINNVILLE MUNICIPAL AIRPORT , OR, United States (KMMV) 45-12N 123-08W 48M
Jul 25, 2014 - 12:53 AM EDT / 2014.07.25 0453 UTC
Wind: from the N (360 degrees) at 9 MPH (8 KT):0
Visibility: 10 mile(s):0
Sky conditions: overcast
Temperature: 64.0 F (17.8 C)
Dew Point: 53.1 F (11.7 C)
Relative Humidity: 67%
Pressure (altimeter): 30.2 in. Hg (1022 hPa)
ob: KMMV 250453Z AUTO 36008KT 10SM OVC041 18/12 A3020 RMK AO2 SLP227 T01780117
cycle: 5
SALEM MCNARY FIELD, OR, United States (KSLE) 44-54N 123-00W 59M
Jul 25, 2014 - 12:56 AM EDT / 2014.07.25 0456 UTC
Wind: from the WNW (300 degrees) at 5 MPH (4 KT):0
Visibility: 10 mile(s):0
Sky conditions: mostly cloudy
Temperature: 64.0 F (17.8 C)
Dew Point: 53.1 F (11.7 C)
Relative Humidity: 67%
Pressure (altimeter): 30.18 in. Hg (1022 hPa)
ob: KSLE 250456Z AUTO 30004KT 10SM FEW046 BKN055 18/12 A3018 RMK AO2 SLP218 T01780117
cycle: 5


Sunset at:
8:49 pm

Moonrise at:
4:00 am 07/24/14

Moonset at:
6:15 pm 07/23/14

First Quarter  5 July 2014
Full moon  12 July 2014
Last Quarter19 July 2014
New moon 26 July 2014
Moon age: 27 days,3 hours,9 minutes,7%
Hours of possible daylight today was 15:03



Use the RELOAD facility on your browser to retrieve the latest data.

Click here for current Fire weather info
Click here for the daily CLIMATOLOGICAL SUMMARY
Click here for a daily update of the averages/extremes to date for the month




Created by "Weather Display" software version 10.37R Build 81 at this start time/date 6:59 pm 6/25/2014




On The Greenway Weather Web Site

 
 
HELP US OUT
Help us keep this weather station on the web. for the Tigard / Portland internet users to use. If you would like to help, click the donate button below
 
This site is purely funded by donations and by myself (Ray Cooper)
Anything you can do will help keep this station on the net
Average cost per year is $665 to publish and host this site excluding the cost of the weather equipment
Buyastrostuff.com is kind enough to host our DNS and email at no cost.
THANKS GUYS & Gals for helping
Have a Question,or just want to talk. Contact me at:
Ray Cooper @ Buyastrostuff.com